Delta Virtual Airport Information Service

San Juan Luis Munoz Marin International Airport

ICAO: TJSJ Country: Puerto Rico
Latitude: 18.4394 Longitude: -66.0018
Latest Arrival : DAL559 (A) (KATL-TJSJ) Latest Departure : DALJUMP (TJSJ-KSEA)


WX CaptureLIVE
Data provided by noaa.gov | Fetched at 16:31:01

METAR : TJSJ 062056Z 07016KT 10SM SCT038 31/22 A2996

TAF : TJSJ 061740Z 0618/0718 07017KT P6SM FEW030 FM062300 09006KT P6SM FEW030 FM071400 06015KT P6SM VCSH FEW035 SCT050


Runway Data for TJSJ
Data provided by openaviationdata.com

Runway ID Mag Var Hdg Length Elevation Surface ILS Freq ILS Id ILS Slope
8 -11 77° 10005 ft 9 ft Asphalt 110.3 ISJU 3
10 -11 101° 8013 ft 9 ft Concrete 109.7 ICLA 3
26 -11 257° 10005 ft 9 ft Asphalt -- -- --
28 -11 281° 8013 ft 9 ft Concrete -- -- --

San Juan Luis Munoz Marin International Airport, Puerto Rico
Use only for reference purposes



Not for navigational purposes.